Time;durP1;ratioP1;P1;durP2;ratioP2;P2;SDS_P1;SDS_P2;PMS_P1;PMS_P2;Temp;Humidity;BMP_temperature;BMP_pressure;BME280_temperature;BME280_humidity;BME280_pressure;Samples;Min_cycle;Max_cycle;Signal;HPM_P1;HPM_P2
2023/07/24 00:00:48;;;;;;;6.90;3.63;;;;;;;16.04;100.00;100273.28;5031917;28;20445;-84
2023/07/24 00:03:33;;;;;;;8.07;3.50;;;;;;;16.04;100.00;100273.28;5051420;28;20399;-83
2023/07/24 00:06:19;;;;;;;11.40;4.65;;;;;;;16.04;100.00;100283.97;5050549;28;20098;-84
2023/07/24 00:09:05;;;;;;;8.50;3.95;;;;;;;16.05;100.00;100271.44;5051561;28;20044;-82
2023/07/24 00:11:50;;;;;;;9.55;4.45;;;;;;;16.05;100.00;100280.31;5051907;28;20041;-84
2023/07/24 00:14:36;;;;;;;7.88;3.72;;;;;;;16.04;100.00;100270.63;5037905;28;20132;-84
2023/07/24 00:17:22;;;;;;;6.43;3.65;;;;;;;16.03;100.00;100271.59;5037210;28;20037;-84
2023/07/24 00:20:08;;;;;;;11.27;4.22;;;;;;;16.02;100.00;100267.22;5031907;28;20064;-83
2023/07/24 00:22:54;;;;;;;9.98;4.72;;;;;;;16.01;100.00;100265.50;5053085;28;20044;-83
2023/07/24 00:25:39;;;;;;;9.27;4.28;;;;;;;16.01;100.00;100268.16;5039051;28;20645;-85
2023/07/24 00:28:25;;;;;;;8.80;4.38;;;;;;;15.99;100.00;100267.44;5051096;28;20143;-83
2023/07/24 00:31:11;;;;;;;12.93;4.38;;;;;;;15.99;100.00;100265.63;5051248;28;20032;-84
2023/07/24 00:33:59;;;;;;;8.50;4.03;;;;;;;15.97;100.00;100267.56;5051681;28;20989;-84
2023/07/24 00:36:45;;;;;;;12.23;5.18;;;;;;;15.95;100.00;100263.34;5051239;28;20090;-84
2023/07/24 00:39:33;;;;;;;9.20;4.53;;;;;;;15.95;100.00;100268.69;5051503;28;20048;-84
2023/07/24 00:42:19;;;;;;;12.75;4.65;;;;;;;15.93;100.00;100258.09;5038978;28;20671;-85
2023/07/24 00:45:06;;;;;;;13.05;5.18;;;;;;;15.92;100.00;100259.06;5031191;28;20040;-83
2023/07/24 00:47:52;;;;;;;11.85;4.55;;;;;;;15.93;100.00;100259.91;5020561;28;20036;-83
2023/07/24 00:50:38;;;;;;;14.57;5.22;;;;;;;15.92;100.00;100244.88;5020950;28;20115;-83
2023/07/24 00:53:24;;;;;;;9.50;4.40;;;;;;;15.89;100.00;100233.44;5051877;28;20098;-84
2023/07/24 00:56:10;;;;;;;14.20;5.10;;;;;;;15.89;100.00;100243.25;5051904;28;20114;-83
2023/07/24 00:58:56;;;;;;;11.18;4.93;;;;;;;15.88;100.00;100246.91;5042641;28;20051;-84
2023/07/24 01:01:42;;;;;;;9.48;4.82;;;;;;;15.85;100.00;100245.31;5031898;28;20491;-83
2023/07/24 01:04:28;;;;;;;14.00;5.47;;;;;;;15.85;100.00;100239.97;5035676;28;20403;-84
2023/07/24 01:07:16;;;;;;;11.45;5.10;;;;;;;15.85;100.00;100241.81;5050795;28;20052;-84
2023/07/24 01:10:02;;;;;;;9.07;4.97;;;;;;;15.82;100.00;100245.56;5049685;28;20137;-84
2023/07/24 01:13:16;;;;;;;11.02;4.68;;;;;;;15.83;100.00;100241.06;5024287;28;20083;-85
2023/07/24 01:16:03;;;;;;;;;;;;;;;15.80;100.00;100233.31;5054975;28;20324;-85
2023/07/24 01:18:52;;;;;;;10.40;4.93;;;;;;;15.78;100.00;100240.56;5041750;28;20007;-84
2023/07/24 01:21:59;;;;;;;13.13;5.60;;;;;;;15.75;100.00;100231.00;5055211;28;20029;-84
2023/07/24 01:25:17;;;;;;;10.52;4.93;;;;;;;15.73;100.00;100233.78;5053401;28;20090;-84
2023/07/24 01:28:07;;;;;;;9.90;5.15;;;;;;;15.72;100.00;100225.88;5055315;28;20040;-84
2023/07/24 01:30:53;;;;;;;13.27;5.93;;;;;;;15.70;100.00;100226.00;5033506;28;20032;-83
2023/07/24 01:33:39;;;;;;;10.15;5.60;;;;;;;15.70;100.00;100223.31;5039989;28;20043;-84
2023/07/24 01:36:25;;;;;;;11.15;5.57;;;;;;;15.72;100.00;100220.53;5042613;28;20075;-83
2023/07/24 01:39:11;;;;;;;11.98;5.53;;;;;;;15.73;100.00;100220.44;5035689;28;20047;-85
2023/07/24 01:41:57;;;;;;;11.00;6.28;;;;;;;15.76;100.00;100206.00;5035044;28;20040;-84
2023/07/24 01:44:42;;;;;;;9.93;6.18;;;;;;;15.78;100.00;100203.19;5034265;28;20515;-84
2023/07/24 01:47:29;;;;;;;12.32;5.88;;;;;;;15.80;100.00;100196.78;5041756;28;20072;-84
2023/07/24 01:50:15;;;;;;;13.05;6.65;;;;;;;15.81;100.00;100203.84;5054090;28;20193;-85
2023/07/24 01:53:01;;;;;;;11.52;6.10;;;;;;;15.83;100.00;100204.56;5020405;28;20071;-85
2023/07/24 01:55:47;;;;;;;13.70;6.20;;;;;;;15.85;100.00;100199.09;5054490;28;20086;-87
2023/07/24 01:58:32;;;;;;;11.27;5.68;;;;;;;15.86;100.00;100206.97;5053549;28;20041;-86
2023/07/24 02:01:18;;;;;;;10.13;6.15;;;;;;;15.89;100.00;100203.22;5052638;28;22360;-85
2023/07/24 02:04:04;;;;;;;10.57;5.20;;;;;;;15.90;100.00;100207.56;5052671;28;20511;-85
2023/07/24 02:06:50;;;;;;;11.48;6.07;;;;;;;15.92;100.00;100202.16;5054431;28;20491;-84
2023/07/24 02:09:35;;;;;;;14.05;6.45;;;;;;;15.93;100.00;100196.72;5042092;28;20044;-86
2023/07/24 02:12:21;;;;;;;11.27;5.38;;;;;;;15.94;100.00;100203.75;5033225;28;20056;-85
2023/07/24 02:15:07;;;;;;;14.77;5.60;;;;;;;15.95;100.00;100193.94;5054263;28;20044;-85
2023/07/24 02:17:53;;;;;;;12.35;5.93;;;;;;;15.96;100.00;100192.97;5024177;28;20068;-87
2023/07/24 02:20:41;;;;;;;11.70;6.15;;;;;;;15.96;100.00;100185.78;5052426;28;20130;-84
2023/07/24 02:23:27;;;;;;;12.35;5.90;;;;;;;15.97;100.00;100187.47;5034180;28;20468;-85
2023/07/24 02:26:13;;;;;;;14.20;6.43;;;;;;;15.98;100.00;100185.66;5022287;28;20487;-84
2023/07/24 02:28:59;;;;;;;10.80;5.43;;;;;;;15.99;100.00;100187.38;5022180;28;20098;-82
2023/07/24 02:31:44;;;;;;;12.13;5.72;;;;;;;15.99;100.00;100188.22;5010528;28;20029;-83
2023/07/24 02:34:30;;;;;;;11.00;6.00;;;;;;;15.99;100.00;100185.56;5053043;28;20037;-82
2023/07/24 02:37:16;;;;;;;12.43;5.47;;;;;;;16.00;100.00;100181.91;5039783;28;20138;-82
2023/07/24 02:40:01;;;;;;;10.88;5.05;;;;;;;16.02;100.00;100187.13;5053428;28;20047;-82
2023/07/24 02:42:47;;;;;;;9.63;5.03;;;;;;;16.04;100.00;100181.66;5053057;28;20044;-82
2023/07/24 02:45:39;;;;;;;9.10;4.82;;;;;;;16.05;100.00;100173.53;5053194;28;20602;-81
2023/07/24 02:48:25;;;;;;;10.18;4.45;;;;;;;16.05;100.00;100176.19;5027557;28;20033;-83
2023/07/24 02:51:10;;;;;;;7.97;4.55;;;;;;;16.07;100.00;100168.91;5033058;28;20041;-83
2023/07/24 02:53:56;;;;;;;8.93;4.47;;;;;;;16.07;100.00;100166.25;5040282;28;20040;-82
2023/07/24 02:56:42;;;;;;;8.98;4.57;;;;;;;16.08;100.00;100173.28;5036491;28;20047;-84
2023/07/24 02:59:29;;;;;;;9.05;4.45;;;;;;;16.09;100.00;100168.78;5033639;28;20040;-84
2023/07/24 03:02:15;;;;;;;8.35;3.97;;;;;;;16.10;100.00;100186.50;5032470;28;20083;-86
2023/07/24 03:05:00;;;;;;;7.53;4.03;;;;;;;16.12;100.00;100185.41;5052830;28;20948;-84
2023/07/24 03:07:46;;;;;;;9.23;4.53;;;;;;;16.13;100.00;100175.59;5053040;28;20522;-84
2023/07/24 03:10:32;;;;;;;8.27;4.25;;;;;;;16.13;100.00;100165.75;5038016;28;20032;-83
2023/07/24 03:13:18;;;;;;;11.15;4.38;;;;;;;16.14;100.00;100170.13;5033645;28;20033;-84
2023/07/24 03:16:04;;;;;;;7.35;4.05;;;;;;;16.17;100.00;100170.88;5052558;28;20037;-84
2023/07/24 03:18:49;;;;;;;7.03;4.15;;;;;;;16.17;100.00;100176.22;5035990;28;20178;-83
2023/07/24 03:21:35;;;;;;;13.00;4.18;;;;;;;16.17;100.00;100170.88;5032797;28;20187;-83
2023/07/24 03:24:21;;;;;;;7.47;4.03;;;;;;;16.17;100.00;100171.69;5051605;28;20682;-82
2023/07/24 03:27:07;;;;;;;8.52;3.60;;;;;;;16.19;100.00;100182.25;5051132;28;20045;-84
2023/07/24 03:29:53;;;;;;;7.32;3.70;;;;;;;16.20;100.00;100175.94;5052445;28;20128;-83
2023/07/24 03:32:38;;;;;;;7.57;4.05;;;;;;;16.20;100.00;100171.47;5051760;28;20032;-84
2023/07/24 03:35:27;;;;;;;9.23;4.05;;;;;;;16.20;100.00;100175.94;5032099;28;20037;-84
2023/07/24 03:38:12;;;;;;;9.15;4.15;;;;;;;16.21;100.00;100182.97;5040351;28;20047;-83
2023/07/24 03:40:58;;;;;;;10.05;3.95;;;;;;;16.22;100.00;100182.00;5036896;28;20136;-83
2023/07/24 03:43:44;;;;;;;10.18;4.03;;;;;;;16.23;100.00;100181.88;5052522;28;20037;-83
2023/07/24 03:46:31;;;;;;;8.57;3.90;;;;;;;16.25;100.00;100171.09;5037715;28;20418;-84
2023/07/24 03:49:17;;;;;;;12.18;4.28;;;;;;;16.26;100.00;100167.44;5050801;28;20126;-83
2023/07/24 03:52:03;;;;;;;6.93;3.90;;;;;;;16.27;100.00;100175.34;5039336;28;20037;-82
2023/07/24 03:54:49;;;;;;;10.10;4.18;;;;;;;16.28;100.00;100178.84;5022032;28;20051;-83
2023/07/24 03:57:35;;;;;;;6.75;3.88;;;;;;;16.29;100.00;100180.56;5051847;28;20154;-83
2023/07/24 04:00:20;;;;;;;8.75;4.45;;;;;;;16.28;100.00;100165.50;5039255;28;20066;-83
2023/07/24 04:03:06;;;;;;;10.98;4.30;;;;;;;16.30;100.00;100158.22;5051292;28;20040;-84
2023/07/24 04:05:52;;;;;;;8.02;3.75;;;;;;;16.31;100.00;100161.72;5045863;28;20048;-85
2023/07/24 04:08:38;;;;;;;7.40;4.00;;;;;;;16.31;100.00;100159.91;5047976;28;20033;-83
2023/07/24 04:11:23;;;;;;;11.07;4.20;;;;;;;16.32;100.00;100158.94;5051399;28;20028;-82
2023/07/24 04:14:09;;;;;;;7.03;3.95;;;;;;;16.33;100.00;100151.78;5052300;28;20041;-84
2023/07/24 04:16:55;;;;;;;8.55;3.70;;;;;;;16.33;100.00;100144.59;5021436;28;20032;-83
2023/07/24 04:19:41;;;;;;;12.70;4.00;;;;;;;16.34;100.00;100150.81;5051687;28;20036;-83
2023/07/24 04:22:29;;;;;;;8.57;4.25;;;;;;;16.34;100.00;100157.00;5039474;28;20123;-87
2023/07/24 04:25:15;;;;;;;9.52;3.72;;;;;;;16.35;100.00;100152.50;5034908;28;20048;-83
2023/07/24 04:28:01;;;;;;;8.95;4.30;;;;;;;16.35;100.00;100150.66;5050108;28;21085;-83
2023/07/24 04:30:47;;;;;;;8.73;4.53;;;;;;;16.36;100.00;100154.19;5051475;28;20083;-83
2023/07/24 04:33:32;;;;;;;9.25;4.18;;;;;;;16.35;100.00;100156.00;5051116;28;20128;-84
2023/07/24 04:36:18;;;;;;;9.60;3.83;;;;;;;16.37;100.00;100167.44;5036282;28;20075;-83
2023/07/24 04:39:04;;;;;;;9.57;4.15;;;;;;;16.38;100.00;100163.78;5051196;28;20131;-82
2023/07/24 04:41:50;;;;;;;7.13;3.60;;;;;;;16.39;100.00;100154.81;5051408;28;20037;-83
2023/07/24 04:44:36;;;;;;;12.57;4.80;;;;;;;16.40;100.00;100156.50;5031949;28;20037;-83
2023/07/24 04:47:21;;;;;;;11.07;4.75;;;;;;;16.41;100.00;100155.50;5054300;28;20446;-84
2023/07/24 04:50:07;;;;;;;11.20;4.70;;;;;;;16.42;100.00;100154.56;5045777;28;21515;-83
2023/07/24 04:52:53;;;;;;;8.98;4.10;;;;;;;16.43;100.00;100156.25;5057316;28;20067;-84
2023/07/24 04:55:39;;;;;;;8.60;4.20;;;;;;;16.44;100.00;100151.75;5038047;28;20060;-84
2023/07/24 04:58:25;;;;;;;8.93;4.55;;;;;;;16.45;100.00;100147.28;5046068;28;20860;-84
2023/07/24 05:01:10;;;;;;;10.05;4.03;;;;;;;16.46;100.00;100135.59;5038644;28;20041;-84
2023/07/24 05:03:56;;;;;;;11.82;4.50;;;;;;;16.47;100.00;100129.28;5043081;28;20033;-83
2023/07/24 05:06:42;;;;;;;10.48;4.80;;;;;;;16.48;100.00;100141.66;5028421;28;20044;-83
2023/07/24 05:09:27;;;;;;;9.50;4.10;;;;;;;16.49;100.00;100141.53;5024397;28;20079;-84
2023/07/24 05:12:13;;;;;;;9.00;4.80;;;;;;;16.50;100.00;100139.72;5058138;28;20044;-84
2023/07/24 05:14:59;;;;;;;9.95;4.30;;;;;;;16.49;100.00;100144.22;5054077;28;20036;-84
2023/07/24 05:17:45;;;;;;;8.88;4.10;;;;;;;16.49;100.00;100146.88;5056926;28;20047;-84
2023/07/24 05:20:30;;;;;;;8.63;3.88;;;;;;;16.49;100.00;100143.34;5056618;28;20119;-83
2023/07/24 05:23:16;;;;;;;11.70;4.28;;;;;;;16.48;100.00;100149.69;5046248;28;20510;-84
2023/07/24 05:26:03;;;;;;;10.90;3.90;;;;;;;16.46;100.00;100146.28;5030909;28;20048;-83
2023/07/24 05:28:49;;;;;;;9.82;4.22;;;;;;;16.45;100.00;100145.44;5044206;28;20060;-84
2023/07/24 05:31:36;;;;;;;10.85;4.03;;;;;;;16.45;100.00;100141.94;5045447;28;20048;-85
2023/07/24 05:34:21;;;;;;;9.88;4.22;;;;;;;16.46;100.00;100143.63;5057203;28;20043;-84
2023/07/24 05:37:07;;;;;;;12.95;4.10;;;;;;;16.44;100.00;100133.03;5057577;28;20044;-84
2023/07/24 05:39:53;;;;;;;10.52;4.32;;;;;;;16.45;100.00;100136.59;5057031;28;20060;-85
2023/07/24 05:42:41;;;;;;;10.23;4.40;;;;;;;16.46;100.00;100138.28;5039824;28;21592;-85
2023/07/24 05:45:27;;;;;;;9.40;4.35;;;;;;;16.48;100.00;100136.31;5041711;28;20051;-84
2023/07/24 05:48:13;;;;;;;12.40;4.20;;;;;;;16.49;100.00;100138.88;5057821;28;20071;-85
2023/07/24 05:50:59;;;;;;;11.18;3.78;;;;;;;16.52;100.00;100141.28;5058046;28;20052;-85
2023/07/24 05:53:44;;;;;;;10.70;4.38;;;;;;;16.54;100.00;100136.69;5044350;28;20033;-84
2023/07/24 05:56:30;;;;;;;9.48;4.15;;;;;;;16.58;100.00;100137.28;5056707;28;20039;-84
2023/07/24 05:59:16;;;;;;;11.02;4.90;;;;;;;16.62;100.00;100129.84;5041545;28;20051;-84
2023/07/24 06:02:02;;;;;;;10.25;4.70;;;;;;;16.66;100.00;100134.81;5053687;28;20040;-84
2023/07/24 06:04:47;;;;;;;10.07;4.70;;;;;;;16.70;100.00;100141.63;5054343;28;20070;-84
2023/07/24 06:07:33;;;;;;;9.93;4.78;;;;;;;16.76;100.00;100136.72;5052927;28;20040;-84
2023/07/24 06:10:19;;;;;;;14.55;5.07;;;;;;;16.79;100.00;100139.16;5034295;28;20036;-84
2023/07/24 06:13:04;;;;;;;10.07;4.30;;;;;;;16.82;100.00;100139.75;5053646;28;20033;-84
2023/07/24 06:15:52;;;;;;;9.65;4.18;;;;;;;16.86;100.00;100143.00;5039089;28;20041;-85
2023/07/24 06:18:37;;;;;;;8.05;4.53;;;;;;;16.89;100.00;100144.56;5024127;28;20288;-84
2023/07/24 06:21:25;;;;;;;9.73;4.85;;;;;;;16.91;100.00;100138.13;5038648;28;20068;-84
2023/07/24 06:24:12;;;;;;;9.70;5.03;;;;;;;16.93;100.00;100143.31;5034444;28;20043;-85
2023/07/24 06:26:58;;;;;;;12.13;4.65;;;;;;;16.94;100.00;100148.56;5053473;28;20098;-85
2023/07/24 06:29:43;;;;;;;10.40;5.38;;;;;;;16.95;100.00;100144.91;5053770;28;20546;-84
2023/07/24 06:32:29;;;;;;;10.77;4.82;;;;;;;16.97;100.00;100142.09;5053602;28;20036;-84
2023/07/24 06:35:15;;;;;;;14.43;4.90;;;;;;;16.98;100.00;100135.78;5032345;28;20036;-84
2023/07/24 06:38:00;;;;;;;8.43;4.63;;;;;;;17.00;100.00;100147.19;5018493;28;20039;-84
2023/07/24 06:40:46;;;;;;;11.70;5.00;;;;;;;17.02;100.00;100144.41;5053653;28;20136;-84
2023/07/24 06:43:32;;;;;;;10.43;5.40;;;;;;;17.02;100.00;100144.41;5052998;28;20336;-83
2023/07/24 06:46:18;;;;;;;10.85;5.03;;;;;;;16.99;100.00;100152.69;5037864;28;20052;-84
2023/07/24 06:49:03;;;;;;;10.68;5.80;;;;;;;16.99;100.00;100147.34;5049202;28;20513;-84
2023/07/24 06:51:49;;;;;;;9.25;4.90;;;;;;;17.01;100.00;100150.72;5053401;28;20029;-83
2023/07/24 06:54:35;;;;;;;13.30;5.47;;;;;;;17.03;100.00;100148.78;5037000;28;20036;-84
2023/07/24 06:57:20;;;;;;;12.50;5.13;;;;;;;17.06;100.00;100151.22;5051971;28;20055;-84
2023/07/24 07:00:11;;;;;;;11.55;5.20;;;;;;;17.11;100.00;100157.03;5052717;28;20548;-84
2023/07/24 07:02:57;;;;;;;11.27;5.47;;;;;;;17.15;100.00;100155.78;5038397;28;20046;-83
2023/07/24 07:05:42;;;;;;;13.13;5.68;;;;;;;17.20;100.00;100156.25;5053181;28;20515;-84
2023/07/24 07:08:31;;;;;;;11.27;5.70;;;;;;;17.24;100.00;100159.50;5052638;28;20407;-85
2023/07/24 07:11:17;;;;;;;13.48;6.47;;;;;;;17.29;100.00;100156.44;5037165;28;20040;-84
2023/07/24 07:14:02;;;;;;;13.38;5.80;;;;;;;17.33;100.00;100153.38;5053549;28;20135;-85
2023/07/24 07:16:48;;;;;;;11.52;5.88;;;;;;;17.42;100.00;100157.09;5052473;28;20032;-84
2023/07/24 07:19:35;;;;;;;11.43;6.10;;;;;;;17.48;100.00;100159.25;5052404;28;21030;-85
2023/07/24 07:22:21;;;;;;;12.43;5.95;;;;;;;17.55;100.00;100148.88;5037169;28;20044;-84
2023/07/24 07:25:07;;;;;;;8.70;5.68;;;;;;;17.59;100.00;100152.13;5040412;28;20040;-83
2023/07/24 07:27:53;;;;;;;9.85;5.95;;;;;;;17.63;100.00;100153.53;5025310;28;20036;-84
2023/07/24 07:30:40;;;;;;;14.73;5.85;;;;;;;17.63;100.00;100149.06;5029493;28;20052;-88
2023/07/24 07:33:25;;;;;;;12.13;5.95;;;;;;;17.65;100.00;100151.56;5032976;28;20068;-88
2023/07/24 07:36:12;;;;;;;11.30;5.53;;;;;;;17.67;100.00;100148.78;5051325;28;20044;-84
2023/07/24 07:38:57;;;;;;;14.63;6.50;;;;;;;17.70;100.00;100154.72;5051279;28;20994;-84
2023/07/24 07:41:43;;;;;;;12.48;5.10;;;;;;;17.73;100.00;100154.47;5053226;28;20490;-83
2023/07/24 07:44:29;;;;;;;11.15;5.78;;;;;;;17.74;100.00;100148.13;5035515;28;20102;-86
2023/07/24 07:47:15;;;;;;;15.38;6.35;;;;;;;17.78;100.00;100151.38;5043345;28;20080;-85
2023/07/24 07:50:03;;;;;;;10.27;5.68;;;;;;;17.81;100.00;100152.94;5050028;28;20036;-88
2023/07/24 07:52:54;;;;;;;10.07;5.22;;;;;;;17.86;100.00;100148.03;5031799;28;20032;-88
2023/07/24 07:55:40;;;;;;;11.55;5.47;;;;;;;17.88;100.00;100152.25;5038003;28;20072;-90
2023/07/24 07:58:26;;;;;;;10.35;5.38;;;;;;;17.94;100.00;100145.53;5043649;28;20039;-89
2023/07/24 08:01:11;;;;;;;9.85;5.65;;;;;;;18.01;100.00;100141.31;5051555;28;20609;-90
2023/07/24 08:03:57;;;;;;;12.25;5.63;;;;;;;18.11;100.00;100136.03;5038863;28;21045;-84
2023/07/24 08:06:43;;;;;;;16.65;5.70;;;;;;;18.27;100.00;100135.53;5051130;28;20564;-82
2023/07/24 08:09:29;;;;;;;13.73;5.40;;;;;;;18.49;100.00;100138.06;5047982;28;20225;-83
2023/07/24 08:12:14;;;;;;;11.25;5.60;;;;;;;18.64;100.00;100138.53;5038526;28;20165;-84
2023/07/24 08:15:00;;;;;;;9.10;5.20;;;;;;;18.73;100.00;100135.00;5035120;28;20075;-84
2023/07/24 08:17:46;;;;;;;8.88;5.60;;;;;;;18.80;100.00;100140.66;5035400;28;20040;-83
2023/07/24 08:20:34;;;;;;;8.07;4.75;;;;;;;18.84;100.00;100136.69;5048776;28;20114;-87
2023/07/24 08:23:20;;;;;;;7.30;4.53;;;;;;;18.87;100.00;100133.75;5034795;28;20479;-86
2023/07/24 08:26:06;;;;;;;9.10;4.65;;;;;;;18.92;100.00;100122.59;5029074;28;20071;-85
2023/07/24 08:28:52;;;;;;;10.25;5.07;;;;;;;18.98;100.00;100124.69;5050153;28;20487;-85
2023/07/24 08:31:38;;;;;;;9.52;5.22;;;;;;;19.06;100.00;100118.66;5038586;28;20055;-86
2023/07/24 08:34:24;;;;;;;10.90;5.45;;;;;;;19.29;100.00;100116.50;5050534;28;20032;-84
2023/07/24 08:37:11;;;;;;;8.98;4.95;;;;;;;19.65;100.00;100119.38;5050376;28;20056;-84
2023/07/24 08:39:57;;;;;;;9.23;4.80;;;;;;;19.91;100.00;100113.34;5051020;28;20051;-83
2023/07/24 08:42:43;;;;;;;8.98;4.93;;;;;;;20.16;100.00;100110.94;5051007;28;20118;-83
2023/07/24 08:45:29;;;;;;;10.05;5.38;;;;;;;20.39;100.00;100109.69;5036506;28;20123;-83
2023/07/24 08:48:15;;;;;;;7.45;4.18;;;;;;;20.55;100.00;100114.38;5034132;28;20048;-84
2023/07/24 08:51:09;;;;;;;8.07;4.55;;;;;;;20.63;100.00;100111.78;5044620;28;20101;-83
2023/07/24 08:53:58;;;;;;;10.48;4.38;;;;;;;20.76;100.00;100108.72;5050628;28;20115;-81
2023/07/24 08:56:47;;;;;;;8.98;4.25;;;;;;;20.94;100.00;100103.34;5038842;28;20578;-83
2023/07/24 08:59:33;;;;;;;9.13;4.00;;;;;;;21.13;100.00;100104.16;5049623;28;20047;-83
2023/07/24 09:02:19;;;;;;;8.07;4.25;;;;;;;21.32;100.00;100105.81;5032833;28;21921;-84
2023/07/24 09:05:05;;;;;;;7.70;3.85;;;;;;;21.62;100.00;100103.59;5051054;28;20484;-85
2023/07/24 09:07:52;;;;;;;7.43;3.85;;;;;;;21.85;100.00;100116.56;5027761;28;20051;-91
2023/07/24 09:10:38;;;;;;;7.03;3.90;;;;;;;21.98;100.00;100116.97;5021684;28;20036;-85
2023/07/24 09:13:24;;;;;;;7.00;4.07;;;;;;;22.19;100.00;100112.13;5049181;28;20043;-86
2023/07/24 09:16:24;;;;;;;7.13;4.30;;;;;;;22.38;100.00;100122.63;5046863;28;20830;-85
2023/07/24 09:19:17;;;;;;;8.93;4.35;;;;;;;22.44;100.00;100109.50;5035028;28;20156;-85
2023/07/24 09:22:16;;;;;;;6.40;3.97;;;;;;;22.75;100.00;100108.88;5023576;28;20467;-84
2023/07/24 09:25:05;;;;;;;6.05;3.63;;;;;;;23.00;100.00;100117.84;5042975;28;20045;-85
2023/07/24 09:27:51;;;;;;;6.50;4.18;;;;;;;22.90;100.00;100120.72;5047843;28;20413;-83
2023/07/24 09:30:37;;;;;;;4.80;3.10;;;;;;;22.44;100.00;100123.81;5030246;28;20056;-83
2023/07/24 09:33:33;;;;;;;5.22;3.33;;;;;;;21.71;100.00;100126.06;5021016;28;20739;-87
2023/07/24 09:36:19;;;;;;;5.25;3.22;;;;;;;20.91;100.00;100125.16;5039007;28;20040;-87
2023/07/24 09:39:06;;;;;;;4.50;3.42;;;;;;;20.35;100.00;100126.13;5053838;28;20570;-88
2023/07/24 09:41:52;;;;;;;5.57;4.00;;;;;;;19.93;100.00;100124.75;5053835;28;20032;-88
2023/07/24 09:44:38;;;;;;;5.28;4.20;;;;;;;19.61;100.00;100117.97;5055509;28;20048;-88
2023/07/24 09:47:23;;;;;;;10.60;5.30;;;;;;;19.36;100.00;100123.00;5053275;28;20079;-89
2023/07/24 09:50:09;;;;;;;6.15;5.13;;;;;;;19.16;100.00;100121.34;5040436;28;20040;-87
2023/07/24 09:52:56;;;;;;;8.88;5.55;;;;;;;18.99;100.00;100127.25;5013582;28;20036;-90
2023/07/24 09:55:56;;;;;;;6.65;5.15;;;;;;;18.82;100.00;100122.59;5021023;28;20083;-88
2023/07/24 09:58:44;;;;;;;13.60;6.70;;;;;;;18.60;100.00;100124.56;5057926;28;20483;-89
2023/07/24 10:01:31;;;;;;;10.82;6.72;;;;;;;18.14;100.00;100133.06;5040473;28;20468;-87
2023/07/24 10:04:17;;;;;;;9.32;6.85;;;;;;;17.85;100.00;100136.47;5047961;28;20086;-89
2023/07/24 10:07:04;;;;;;;12.25;6.70;;;;;;;17.68;100.00;100124.56;5019619;28;20053;-85
2023/07/24 10:09:50;;;;;;;11.88;7.78;;;;;;;17.63;100.00;100132.13;5053633;28;20143;-84
2023/07/24 10:12:37;;;;;;;11.35;8.13;;;;;;;17.68;100.00;100124.56;5048827;28;20513;-86
2023/07/24 10:15:22;;;;;;;13.23;8.27;;;;;;;17.86;100.00;100116.75;5023184;28;20033;-86
2023/07/24 10:18:09;;;;;;;14.90;8.70;;;;;;;18.21;100.00;100117.31;5023646;28;20877;-87
2023/07/24 10:21:02;;;;;;;13.73;9.32;;;;;;;18.34;100.00;100100.13;5033029;28;20037;-82
2023/07/24 10:23:48;;;;;;;13.32;8.65;;;;;;;18.29;100.00;100104.06;5051928;28;20503;-83
2023/07/24 10:26:35;;;;;;;13.20;8.00;;;;;;;18.19;100.00;100104.06;5034554;28;20052;-84
2023/07/24 10:29:25;;;;;;;11.30;8.18;;;;;;;18.19;100.00;100095.16;5049035;28;20106;-83
2023/07/24 10:32:18;;;;;;;12.85;9.00;;;;;;;18.24;100.00;100106.31;5022627;28;20292;-83
2023/07/24 10:35:10;;;;;;;13.50;9.27;;;;;;;18.29;100.00;100112.09;5050977;28;20036;-84
2023/07/24 10:38:00;;;;;;;14.90;8.73;;;;;;;18.40;100.00;100107.59;5031448;28;20041;-82
2023/07/24 10:40:50;;;;;;;14.35;8.80;;;;;;;18.61;100.00;100098.63;5035689;28;20051;-86
2023/07/24 10:47:03;;;;;;;11.38;7.55;;;;;;;19.12;100.00;100097.47;5043801;22;20504;-83
2023/07/24 10:49:49;;;;;;;8.90;6.72;;;;;;;19.23;100.00;100091.09;5008710;28;20040;-83
2023/07/24 10:52:35;;;;;;;10.35;6.93;;;;;;;19.25;100.00;100091.81;5025922;28;20049;-82
2023/07/24 10:55:24;;;;;;;10.10;7.43;;;;;;;19.30;100.00;100088.69;5016136;28;20045;-82
2023/07/24 10:58:11;;;;;;;9.88;6.93;;;;;;;19.25;100.00;100089.13;5014900;28;20483;-82
2023/07/24 11:00:58;;;;;;;12.07;5.95;;;;;;;19.18;100.00;100093.34;5022812;28;20053;-83
2023/07/24 11:03:44;;;;;;;7.72;5.90;;;;;;;19.04;100.00;100093.81;5003552;28;20183;-78
2023/07/24 11:06:30;;;;;;;8.43;6.00;;;;;;;18.96;100.00;100099.88;4991347;28;20049;-79
2023/07/24 11:09:16;;;;;;;8.23;6.20;;;;;;;18.94;100.00;100088.41;5021403;28;20551;-79
2023/07/24 11:12:14;;;;;;;7.55;5.80;;;;;;;18.90;100.00;100095.06;5005640;28;20049;-84
2023/07/24 11:15:00;;;;;;;8.63;5.50;;;;;;;18.86;100.00;100102.56;4996701;28;20051;-79
2023/07/24 11:17:47;;;;;;;6.88;5.38;;;;;;;18.91;100.00;100096.75;5006959;28;20041;-79
2023/07/24 11:20:47;;;;;;;7.13;5.25;;;;;;;19.06;100.00;100094.53;5020108;28;20052;-85
2023/07/24 11:23:32;;;;;;;6.10;5.18;;;;;;;19.26;100.00;100098.00;5022839;28;20041;-79
2023/07/24 11:26:20;;;;;;;6.32;5.43;;;;;;;19.43;100.00;100103.63;5018456;28;20049;-79
2023/07/24 11:29:11;;;;;;;5.50;4.78;;;;;;;19.56;100.00;100101.47;5002691;28;20037;-79
2023/07/24 11:31:57;;;;;;;7.68;5.60;;;;;;;19.55;100.00;100107.81;5020824;28;20557;-78
2023/07/24 11:34:43;;;;;;;8.45;5.07;;;;;;;19.40;100.00;100102.09;5009591;28;20530;-77
2023/07/24 11:37:29;;;;;;;8.30;5.13;;;;;;;19.25;100.00;100101.69;5023342;28;20143;-79
2023/07/24 11:40:15;;;;;;;6.05;4.72;;;;;;;19.16;100.00;100099.88;4990583;28;20047;-78
2023/07/24 11:43:03;;;;;;;6.30;4.57;;;;;;;19.25;100.00;100099.84;5020012;28;20127;-79
2023/07/24 11:45:53;;;;;;;7.85;4.32;;;;;;;19.24;100.00;100105.38;5001436;28;20053;-77
2023/07/24 11:48:41;;;;;;;6.13;3.50;;;;;;;19.23;100.00;100114.41;5006055;28;20159;-77
2023/07/24 11:51:27;;;;;;;4.75;3.28;;;;;;;19.28;100.00;100112.13;5008063;28;20122;-77
2023/07/24 11:54:13;;;;;;;5.47;3.20;;;;;;;19.49;100.00;100113.75;4999131;28;20024;-87
2023/07/24 11:56:59;;;;;;;3.17;2.58;;;;;;;19.66;100.00;100102.25;5005703;28;20072;-82
2023/07/24 11:59:45;;;;;;;2.90;2.45;;;;;;;19.73;100.00;100104.34;5026530;28;20034;-77
2023/07/24 12:02:33;;;;;;;3.25;2.60;;;;;;;19.80;100.00;100110.84;5013550;28;20052;-78
2023/07/24 12:05:18;;;;;;;2.60;2.10;;;;;;;19.91;100.00;100102.59;4989579;28;20033;-78
2023/07/24 12:08:04;;;;;;;3.70;2.40;;;;;;;19.98;100.00;100102.03;5017100;28;20142;-79
2023/07/24 12:10:50;;;;;;;4.78;1.80;;;;;;;19.92;100.00;100104.28;5003246;28;20242;-78
2023/07/24 12:13:36;;;;;;;3.55;1.90;;;;;;;19.89;100.00;100104.56;5019784;28;20041;-78
2023/07/24 12:16:21;;;;;;;1.73;1.60;;;;;;;19.90;100.00;100122.38;5020234;28;20044;-78
2023/07/24 12:19:07;;;;;;;1.60;1.48;;;;;;;19.95;100.00;100120.13;5019574;28;20076;-79
2023/07/24 12:21:53;;;;;;;1.50;1.35;;;;;;;19.92;100.00;100124.91;5018444;28;20036;-77
2023/07/24 12:24:39;;;;;;;1.85;1.35;;;;;;;19.89;100.00;100120.66;5000168;28;20131;-80
2023/07/24 12:27:25;;;;;;;1.02;0.90;;;;;;;19.79;100.00;100125.25;5003876;28;20675;-77
2023/07/24 12:30:11;;;;;;;1.25;0.98;;;;;;;19.65;100.00;100116.69;5005410;28;20533;-77
2023/07/24 12:32:58;;;;;;;0.88;0.88;;;;;;;19.55;100.00;100118.53;5008368;28;20040;-78
2023/07/24 12:35:43;;;;;;;1.73;1.00;;;;;;;19.46;100.00;100120.28;5020441;28;20425;-76
2023/07/24 12:38:30;;;;;;;2.38;1.52;;;;;;;19.43;100.00;100125.09;5008215;28;20069;-77
2023/07/24 12:41:15;;;;;;;1.50;1.40;;;;;;;19.36;100.00;100125.69;4994057;28;20586;-77
2023/07/24 12:44:01;;;;;;;1.77;1.67;;;;;;;19.25;100.00;100126.69;5021007;28;20381;-76
2023/07/24 12:46:47;;;;;;;4.35;1.45;;;;;;;19.06;100.00;100135.59;5014267;28;20065;-76